Time;durP1;ratioP1;P1;durP2;ratioP2;P2;SDS_P1;SDS_P2;PMS_P1;PMS_P2;Temp;Humidity;BMP_temperature;BMP_pressure;BME280_temperature;BME280_humidity;BME280_pressure;Samples;Min_cycle;Max_cycle;Signal;HPM_P1;HPM_P2
2021/01/23 00:02:09;;;;;;;35.13;17.77;;;;;;;2.92;100.00;95785.47;5126109;28;20031;-79
2021/01/23 00:04:36;;;;;;;29.70;16.73;;;;;;;3.01;100.00;95786.28;5115309;28;20048;-79
2021/01/23 00:07:02;;;;;;;26.42;15.57;;;;;;;3.00;100.00;95793.50;5124708;28;20032;-80
2021/01/23 00:09:30;;;;;;;26.70;15.23;;;;;;;3.00;100.00;95792.72;5101420;28;20284;-78
2021/01/23 00:11:57;;;;;;;26.23;15.10;;;;;;;3.01;100.00;95789.75;5118260;28;20051;-79
2021/01/23 00:14:23;;;;;;;29.52;16.23;;;;;;;3.04;100.00;95791.03;5118531;28;20058;-80
2021/01/23 00:16:52;;;;;;;26.80;15.00;;;;;;;3.07;100.00;95782.38;5104270;28;20031;-80
2021/01/23 00:19:20;;;;;;;29.48;15.25;;;;;;;3.10;100.00;95761.16;5132859;27;20130;-79
2021/01/23 00:21:49;;;;;;;24.70;15.02;;;;;;;3.12;100.00;95769.63;5120984;27;20111;-80
2021/01/23 00:24:16;;;;;;;23.25;14.18;;;;;;;3.07;100.00;95758.34;5138984;27;20043;-80
2021/01/23 00:26:43;;;;;;;24.73;14.55;;;;;;;3.12;100.00;95766.19;5121316;27;20035;-79
2021/01/23 00:29:13;;;;;;;23.10;13.35;;;;;;;3.08;100.00;95768.69;5120731;27;20076;-80
2021/01/23 00:31:41;;;;;;;22.20;13.52;;;;;;;3.07;100.00;95769.78;5139859;27;20039;-78
2021/01/23 00:34:09;;;;;;;24.40;14.07;;;;;;;3.09;100.00;95756.91;5139285;27;20456;-78
2021/01/23 00:36:37;;;;;;;21.58;13.32;;;;;;;3.10;100.00;95758.47;5139304;27;20062;-79
2021/01/23 00:39:05;;;;;;;23.85;14.38;;;;;;;3.04;100.00;95765.09;5139010;27;20065;-79
2021/01/23 00:41:31;;;;;;;26.73;14.85;;;;;;;3.00;100.00;95744.63;5138518;27;20054;-77
2021/01/23 00:43:58;;;;;;;24.85;14.65;;;;;;;3.02;100.00;95766.50;5138591;27;20043;-79
2021/01/23 00:46:27;;;;;;;28.10;16.25;;;;;;;2.99;100.00;95762.53;5144418;27;20045;-80
2021/01/23 00:48:53;;;;;;;27.98;16.33;;;;;;;2.99;100.00;95756.44;5143841;27;20085;-78
2021/01/23 00:51:19;;;;;;;27.58;16.00;;;;;;;3.00;100.00;95749.97;5143815;27;20047;-78
2021/01/23 00:53:48;;;;;;;44.85;20.77;;;;;;;2.88;100.00;95749.78;5146302;27;20052;-79
2021/01/23 00:56:14;;;;;;;48.38;25.05;;;;;;;2.87;100.00;95756.22;5142307;27;20055;-78
2021/01/23 00:58:40;;;;;;;57.00;27.75;;;;;;;2.84;100.00;95754.19;5142953;27;20091;-78
2021/01/23 01:01:07;;;;;;;59.92;29.45;;;;;;;2.86;100.00;95763.47;5150704;27;20113;-80
2021/01/23 01:03:33;;;;;;;64.90;30.63;;;;;;;2.87;100.00;95753.56;5094230;27;20162;-81
2021/01/23 01:06:00;;;;;;;64.50;32.97;;;;;;;2.85;100.00;95755.75;5123440;27;20046;-80
2021/01/23 01:08:27;;;;;;;61.40;31.95;;;;;;;2.87;100.00;95746.34;5118589;27;20051;-80
2021/01/23 01:10:54;;;;;;;67.13;31.98;;;;;;;2.74;100.00;95759.81;5102312;28;20055;-77
2021/01/23 01:13:22;;;;;;;60.95;29.75;;;;;;;2.73;100.00;95751.03;5099514;28;20138;-79
2021/01/23 01:15:49;;;;;;;61.90;29.98;;;;;;;2.79;100.00;95757.78;5101601;28;20044;-79
2021/01/23 01:18:15;;;;;;;59.85;28.23;;;;;;;2.73;100.00;95748.34;5080360;28;20052;-79
2021/01/23 01:20:42;;;;;;;62.33;29.48;;;;;;;2.79;100.00;95765.00;5098106;28;20349;-79
2021/01/23 01:23:08;;;;;;;62.03;29.83;;;;;;;2.76;100.00;95747.72;5098222;28;20044;-79
2021/01/23 01:25:34;;;;;;;61.10;28.30;;;;;;;2.81;100.00;95760.16;5098790;28;20051;-80
2021/01/23 01:28:01;;;;;;;59.33;29.08;;;;;;;2.79;100.00;95776.47;5079808;28;20092;-80
2021/01/23 01:30:27;;;;;;;58.92;29.33;;;;;;;2.70;100.00;95773.03;5079890;28;20044;-81
2021/01/23 01:32:53;;;;;;;60.35;28.50;;;;;;;2.78;100.00;95782.94;5078845;28;20055;-80
2021/01/23 01:35:19;;;;;;;65.40;29.02;;;;;;;2.80;100.00;95780.75;5097536;28;20487;-80
2021/01/23 01:37:46;;;;;;;59.90;28.85;;;;;;;2.87;100.00;95770.38;5078737;28;20055;-81
2021/01/23 01:40:15;;;;;;;61.60;29.35;;;;;;;2.78;100.00;95753.56;5096871;28;20510;-79
2021/01/23 01:42:42;;;;;;;61.05;28.30;;;;;;;2.91;100.00;95765.22;5078423;28;20051;-79
2021/01/23 01:45:08;;;;;;;57.45;27.75;;;;;;;2.95;100.00;95768.81;5077529;28;20040;-79
2021/01/23 01:47:35;;;;;;;60.05;28.58;;;;;;;2.98;100.00;95765.53;5096285;28;20043;-79
2021/01/23 01:50:02;;;;;;;56.50;27.40;;;;;;;2.95;100.00;95764.28;5077631;28;20074;-80
2021/01/23 01:52:30;;;;;;;55.72;27.63;;;;;;;2.99;100.00;95762.53;5095735;28;20044;-80
2021/01/23 01:54:56;;;;;;;56.65;27.65;;;;;;;2.91;100.00;95746.50;5077852;28;20413;-78
2021/01/23 01:57:23;;;;;;;53.55;26.95;;;;;;;3.00;100.00;95750.75;5096756;28;20040;-78
2021/01/23 01:59:49;;;;;;;51.80;26.38;;;;;;;2.96;100.00;95749.81;5105623;28;20040;-77
2021/01/23 02:02:31;;;;;;;55.70;27.80;;;;;;;2.98;100.00;95754.84;5107934;28;20047;-81
2021/01/23 02:05:36;;;;;;;51.72;25.45;;;;;;;2.95;100.00;95758.13;5097163;28;20067;-81
2021/01/23 02:08:28;;;;;;;51.95;25.20;;;;;;;2.99;100.00;95756.44;5096282;28;20147;-81
2021/01/23 02:11:13;;;;;;;51.28;25.58;;;;;;;3.00;100.00;95763.31;5096404;28;20047;-81
2021/01/23 02:13:54;;;;;;;50.88;25.83;;;;;;;2.94;100.00;95757.34;5101723;28;20048;-80
2021/01/23 02:16:25;;;;;;;50.17;24.35;;;;;;;2.96;100.00;95755.16;5096099;28;20051;-80
2021/01/23 02:19:29;;;;;;;49.70;24.73;;;;;;;2.97;100.00;95743.38;5096236;28;20047;-79
2021/01/23 02:22:07;;;;;;;48.75;24.75;;;;;;;3.00;100.00;95755.31;5097222;28;20527;-81
2021/01/23 02:24:34;;;;;;;47.47;23.38;;;;;;;3.00;100.00;95755.31;5097203;28;20044;-79
2021/01/23 02:27:14;;;;;;;44.92;23.33;;;;;;;2.95;100.00;95763.47;5060866;28;20040;-80
2021/01/23 02:30:01;;;;;;;47.08;24.02;;;;;;;2.92;100.00;95746.19;5077837;28;20044;-78
2021/01/23 02:32:33;;;;;;;46.13;24.50;;;;;;;3.05;100.00;95747.13;5095730;28;20054;-80
2021/01/23 02:35:01;;;;;;;44.78;22.42;;;;;;;3.06;100.00;95743.38;5077424;28;20076;-79
2021/01/23 02:37:32;;;;;;;42.83;22.83;;;;;;;3.08;100.00;95741.19;5077176;28;20043;-79
2021/01/23 02:40:00;;;;;;;46.22;23.38;;;;;;;3.09;100.00;95742.75;5087920;28;20040;-76
2021/01/23 02:42:27;;;;;;;43.10;22.20;;;;;;;2.97;100.00;95721.19;5110384;28;20096;-78
2021/01/23 02:44:53;;;;;;;39.20;20.80;;;;;;;3.03;100.00;95728.75;5081069;28;20039;-80
2021/01/23 02:47:19;;;;;;;37.17;20.88;;;;;;;2.99;100.00;95721.69;5095625;28;20054;-80
2021/01/23 02:49:46;;;;;;;39.83;20.65;;;;;;;3.01;100.00;95728.28;5077009;28;20442;-80
2021/01/23 02:52:40;;;;;;;41.33;20.25;;;;;;;2.94;100.00;95721.84;5095611;28;20044;-81
2021/01/23 02:55:13;;;;;;;37.53;20.75;;;;;;;2.97;100.00;95723.84;5095237;28;20044;-80
2021/01/23 02:57:41;;;;;;;40.58;21.50;;;;;;;2.99;100.00;95711.00;5095419;28;20055;-81
2021/01/23 03:00:10;;;;;;;37.80;20.98;;;;;;;2.89;100.00;95711.31;5094441;28;20046;-81
2021/01/23 03:02:41;;;;;;;41.85;21.58;;;;;;;2.94;100.00;95708.47;5095178;28;20234;-80
2021/01/23 03:05:08;;;;;;;41.83;22.38;;;;;;;2.85;100.00;95705.00;5094449;28;20058;-80
2021/01/23 03:07:35;;;;;;;38.42;21.15;;;;;;;2.84;100.00;95687.41;5076055;28;20091;-80
2021/01/23 03:10:09;;;;;;;41.42;21.15;;;;;;;2.85;100.00;95696.97;5094566;28;20095;-79
2021/01/23 03:12:36;;;;;;;40.60;21.52;;;;;;;2.83;100.00;95681.28;5075968;28;20062;-79
2021/01/23 03:15:04;;;;;;;36.15;20.58;;;;;;;2.86;100.00;95677.19;5094511;28;20040;-79
2021/01/23 03:17:30;;;;;;;37.13;19.98;;;;;;;2.84;100.00;95672.16;5094716;28;20044;-80
2021/01/23 03:19:56;;;;;;;41.55;20.77;;;;;;;2.78;100.00;95672.63;5085588;28;20047;-78
2021/01/23 03:22:22;;;;;;;40.65;21.23;;;;;;;2.78;100.00;95678.75;5078371;28;20047;-79
2021/01/23 03:24:48;;;;;;;39.67;21.55;;;;;;;2.77;100.00;95671.84;5075937;28;20051;-79
2021/01/23 03:27:15;;;;;;;45.10;22.67;;;;;;;2.80;100.00;95668.53;5093498;28;20109;-78
2021/01/23 03:29:41;;;;;;;39.40;21.40;;;;;;;2.77;100.00;95661.16;5093546;28;20265;-80
2021/01/23 03:32:07;;;;;;;41.40;21.52;;;;;;;2.77;100.00;95658.47;5093393;28;20044;-79
2021/01/23 03:34:34;;;;;;;40.53;22.08;;;;;;;2.77;100.00;95649.66;5092830;28;20483;-79
2021/01/23 03:37:00;;;;;;;39.83;21.45;;;;;;;2.78;100.00;95659.25;5075533;28;20044;-79
2021/01/23 03:39:27;;;;;;;42.13;21.85;;;;;;;2.77;100.00;95647.00;5041862;28;20036;-78
2021/01/23 03:41:53;;;;;;;40.67;20.42;;;;;;;2.71;100.00;95635.69;5052098;23;20064;-77
2021/01/23 03:44:19;;;;;;;42.22;21.48;;;;;;;2.71;100.00;95633.00;5045187;28;20050;-78
2021/01/23 03:46:46;;;;;;;38.35;20.27;;;;;;;2.67;100.00;95631.28;5012377;28;20068;-77
2021/01/23 03:49:12;;;;;;;39.92;19.98;;;;;;;2.61;100.00;95627.97;5063669;28;20092;-80
2021/01/23 03:51:39;;;;;;;36.70;19.48;;;;;;;2.60;100.00;95622.97;5012636;28;20112;-77
2021/01/23 03:54:05;;;;;;;33.25;18.45;;;;;;;2.48;100.00;95627.00;4991155;28;20493;-77
2021/01/23 03:56:31;;;;;;;39.58;19.67;;;;;;;2.48;100.00;95624.34;5011294;28;20319;-77
2021/01/23 03:58:58;;;;;;;36.40;19.25;;;;;;;2.52;100.00;95621.84;4993669;28;20444;-77
2021/01/23 04:01:24;;;;;;;38.25;19.77;;;;;;;2.45;100.00;95618.88;4993163;28;20049;-77
2021/01/23 04:03:50;;;;;;;39.20;19.80;;;;;;;2.41;100.00;95618.69;4993560;28;20050;-77
2021/01/23 04:06:17;;;;;;;40.42;19.23;;;;;;;2.44;100.00;95617.28;4995740;28;20496;-78
2021/01/23 04:08:44;;;;;;;36.38;18.55;;;;;;;2.36;100.00;95616.16;5011170;28;20075;-78
2021/01/23 04:11:10;;;;;;;33.85;18.63;;;;;;;2.30;100.00;95620.06;5011551;28;20432;-78
2021/01/23 04:13:36;;;;;;;32.78;18.23;;;;;;;2.27;100.00;95610.03;4993704;28;20443;-77
2021/01/23 04:16:04;;;;;;;34.17;17.70;;;;;;;2.30;100.00;95605.94;5011069;28;20048;-77
2021/01/23 04:18:30;;;;;;;32.13;18.05;;;;;;;2.25;100.00;95606.88;5010845;28;20237;-77
2021/01/23 04:20:56;;;;;;;34.60;17.80;;;;;;;2.24;100.00;95602.66;5010649;28;20067;-77
2021/01/23 04:23:23;;;;;;;34.22;18.20;;;;;;;2.25;100.00;95601.53;4992645;28;20042;-77
2021/01/23 04:25:49;;;;;;;36.63;19.02;;;;;;;2.17;100.00;95602.31;5045901;28;20133;-77
2021/01/23 04:28:15;;;;;;;32.05;17.92;;;;;;;2.15;100.00;95598.38;4992956;28;20042;-77
2021/01/23 04:30:45;;;;;;;32.47;17.58;;;;;;;2.07;100.00;95586.59;4978016;28;20567;-77
2021/01/23 04:33:14;;;;;;;34.20;16.50;;;;;;;1.97;100.00;95581.53;5011818;28;20053;-78
2021/01/23 04:35:40;;;;;;;37.85;18.38;;;;;;;1.89;100.00;95591.09;4994258;28;20624;-77
2021/01/23 04:38:07;;;;;;;30.38;16.67;;;;;;;1.87;100.00;95587.97;5012064;28;20068;-77
2021/01/23 04:40:34;;;;;;;35.38;17.77;;;;;;;1.77;100.00;95592.78;5000700;28;20050;-78
2021/01/23 04:43:02;;;;;;;32.85;16.83;;;;;;;1.70;100.00;95589.78;4982052;28;20054;-78
2021/01/23 04:45:31;;;;;;;31.88;16.65;;;;;;;1.62;100.00;95582.53;5011732;28;20049;-77
2021/01/23 04:47:57;;;;;;;35.30;16.80;;;;;;;1.58;100.00;95576.22;5012351;28;20046;-78
2021/01/23 04:50:23;;;;;;;31.40;16.30;;;;;;;1.51;100.00;95592.69;4994321;28;20042;-78
2021/01/23 04:52:50;;;;;;;32.60;15.75;;;;;;;1.46;100.00;95595.47;5012513;28;20433;-78
2021/01/23 04:55:16;;;;;;;37.17;16.17;;;;;;;1.47;100.00;95596.28;5012170;28;20038;-77
2021/01/23 04:57:43;;;;;;;30.63;16.45;;;;;;;1.41;100.00;95581.50;4994792;28;20053;-78
2021/01/23 05:00:11;;;;;;;32.53;15.98;;;;;;;1.36;100.00;95576.31;4994498;28;20046;-78
2021/01/23 05:02:37;;;;;;;33.08;16.30;;;;;;;1.33;100.00;95575.03;4977736;28;20045;-78
2021/01/23 05:05:06;;;;;;;32.60;15.75;;;;;;;1.31;100.00;95579.09;4994234;28;20507;-78
2021/01/23 05:07:40;;;;;;;33.38;16.13;;;;;;;1.30;100.00;95585.50;5012403;28;20045;-79
2021/01/23 05:10:19;;;;;;;30.20;14.88;;;;;;;1.25;100.00;95571.25;4995075;28;20052;-78
2021/01/23 05:12:53;;;;;;;27.13;14.73;;;;;;;1.27;100.00;95577.03;4979728;28;20124;-79
2021/01/23 05:15:23;;;;;;;34.40;15.60;;;;;;;1.24;100.00;95572.31;5013560;28;20419;-78
2021/01/23 05:17:56;;;;;;;27.85;14.52;;;;;;;1.22;100.00;95577.19;5014291;28;20541;-79
2021/01/23 05:20:34;;;;;;;31.08;14.77;;;;;;;1.22;100.00;95571.06;5016221;28;20046;-80
2021/01/23 05:23:10;;;;;;;34.83;14.02;;;;;;;1.15;100.00;95579.50;4999884;28;20110;-81
2021/01/23 05:25:39;;;;;;;31.80;14.77;;;;;;;1.15;100.00;95576.03;4983862;28;20126;-81
2021/01/23 05:28:26;;;;;;;27.75;14.77;;;;;;;1.13;100.00;95580.91;4985583;28;20133;-83
2021/01/23 05:31:23;;;;;;;28.00;15.02;;;;;;;1.07;100.00;95588.22;4986767;28;20052;-83
2021/01/23 05:34:15;;;;;;;28.73;14.47;;;;;;;1.02;100.00;95590.22;4983619;28;20046;-84
2021/01/23 05:41:28;;;;;;;;;;;;;;;;;;;;;
2021/01/23 05:44:34;;;;;;;;;;;;;;;0.97;100.00;95622.31;4968585;28;20453;-83
2021/01/23 05:47:25;;;;;;;27.63;13.77;;;;;;;0.89;100.00;95618.50;4981405;28;19925;-81
2021/01/23 05:49:55;;;;;;;34.47;15.63;;;;;;;0.89;100.00;95625.69;4998074;28;20038;-79
2021/01/23 05:52:22;;;;;;;28.73;14.40;;;;;;;0.85;100.00;95633.47;4997928;28;20049;-81
2021/01/23 05:54:49;;;;;;;23.98;13.68;;;;;;;0.81;100.00;95643.19;4976320;28;20400;-81
2021/01/23 05:57:15;;;;;;;24.33;13.00;;;;;;;0.83;100.00;95659.63;4993997;28;20129;-81
2021/01/23 05:59:42;;;;;;;21.90;12.07;;;;;;;0.84;100.00;95655.09;4994896;28;20124;-80
2021/01/23 06:02:14;;;;;;;24.58;12.18;;;;;;;0.77;100.00;95654.75;4987048;28;20050;-81
2021/01/23 06:04:42;;;;;;;22.13;12.27;;;;;;;0.82;100.00;95657.28;4967467;28;20058;-79
2021/01/23 06:07:09;;;;;;;25.23;11.65;;;;;;;0.79;100.00;95660.53;4978268;28;20775;-81
2021/01/23 06:09:37;;;;;;;20.77;11.45;;;;;;;0.79;100.00;95676.53;4993292;28;20149;-81
2021/01/23 06:12:05;;;;;;;19.80;10.65;;;;;;;0.79;100.00;95665.88;4975375;28;20454;-80
2021/01/23 06:14:36;;;;;;;20.70;10.57;;;;;;;0.75;100.00;95663.00;4975450;28;20051;-81
2021/01/23 06:17:03;;;;;;;18.38;9.70;;;;;;;0.79;100.00;95669.31;4977250;28;20125;-81
2021/01/23 06:19:30;;;;;;;22.10;10.60;;;;;;;0.77;100.00;95678.69;5003391;28;20057;-83
2021/01/23 06:21:59;;;;;;;21.65;9.73;;;;;;;0.76;100.00;95675.25;5001303;28;20075;-84
2021/01/23 06:24:34;;;;;;;14.73;8.60;;;;;;;0.76;100.00;95680.56;4967128;28;20145;-82
2021/01/23 06:27:02;;;;;;;18.30;9.50;;;;;;;0.73;100.00;95685.69;4981230;28;20042;-83
2021/01/23 06:29:35;;;;;;;17.67;9.40;;;;;;;0.71;100.00;95685.22;4981179;28;20050;-83
2021/01/23 06:32:23;;;;;;;14.38;8.27;;;;;;;0.72;100.00;95692.13;5045367;28;20114;-85
2021/01/23 06:35:03;;;;;;;15.85;9.00;;;;;;;0.67;100.00;95695.69;4987271;28;20042;-84
2021/01/23 06:37:38;;;;;;;16.42;9.10;;;;;;;0.50;100.00;95674.22;4973090;28;20050;-84
2021/01/23 06:40:25;;;;;;;15.02;8.15;;;;;;;0.67;100.00;95697.56;4970748;28;20050;-82
2021/01/23 06:43:05;;;;;;;12.43;6.30;;;;;;;0.54;100.00;95683.19;4975355;28;20092;-82
2021/01/23 06:45:44;;;;;;;12.18;6.88;;;;;;;0.61;100.00;95689.69;4999212;28;20049;-80
2021/01/23 06:48:15;;;;;;;13.02;6.57;;;;;;;0.51;100.00;95691.78;5022573;28;20133;-82
2021/01/23 06:50:56;;;;;;;15.05;6.97;;;;;;;0.52;100.00;95688.00;4973692;28;20041;-83
2021/01/23 06:53:22;;;;;;;11.18;6.78;;;;;;;0.60;100.00;95708.59;4987486;28;20046;-83
2021/01/23 06:55:56;;;;;;;14.27;7.15;;;;;;;0.58;100.00;95705.47;4987471;28;20042;-84
2021/01/23 06:58:29;;;;;;;13.07;5.90;;;;;;;0.56;100.00;95705.78;4975267;28;20095;-86
2021/01/23 07:01:06;;;;;;;12.02;6.60;;;;;;;0.70;100.00;95707.63;4972978;28;20050;-83
2021/01/23 07:04:13;;;;;;;13.25;6.30;;;;;;;0.62;100.00;95717.88;5011806;28;20033;-86
2021/01/23 07:06:49;;;;;;;11.38;5.78;;;;;;;0.70;100.00;95715.59;4987605;28;20046;-84
2021/01/23 07:09:50;;;;;;;11.85;6.13;;;;;;;0.58;100.00;95721.44;4972636;28;20046;-85
2021/01/23 07:12:52;;;;;;;13.52;5.85;;;;;;;0.53;100.00;95714.34;5050827;28;20051;-84
2021/01/23 07:15:21;;;;;;;10.23;4.72;;;;;;;0.64;100.00;95738.88;4987902;28;20036;-81
2021/01/23 07:17:49;;;;;;;7.85;4.40;;;;;;;0.51;100.00;95734.34;4976037;28;20141;-83
2021/01/23 07:20:17;;;;;;;7.45;4.30;;;;;;;0.50;100.00;95725.59;4973645;28;20056;-81
2021/01/23 07:22:45;;;;;;;8.52;4.80;;;;;;;0.53;100.00;95722.31;4974214;28;20053;-85
2021/01/23 07:25:13;;;;;;;13.63;6.80;;;;;;;0.56;100.00;95737.72;4974107;28;20042;-83
2021/01/23 07:27:41;;;;;;;9.93;5.82;;;;;;;0.56;100.00;95739.56;4958572;28;20073;-81
2021/01/23 07:30:16;;;;;;;9.52;5.00;;;;;;;0.54;100.00;95760.38;4958562;28;20129;-82
2021/01/23 07:32:45;;;;;;;8.13;4.72;;;;;;;0.46;100.00;95769.84;4974779;28;20045;-82
2021/01/23 07:35:17;;;;;;;7.47;4.25;;;;;;;0.49;100.00;95763.16;4973650;28;20114;-83
2021/01/23 07:37:46;;;;;;;7.63;4.32;;;;;;;0.46;100.00;95766.41;4993208;28;20527;-85
2021/01/23 07:40:16;;;;;;;12.40;6.18;;;;;;;0.45;100.00;95778.91;4983910;28;20205;-81
2021/01/23 07:42:45;;;;;;;15.38;7.72;;;;;;;0.48;100.00;95774.88;5012932;28;20069;-83
2021/01/23 07:45:14;;;;;;;15.85;8.00;;;;;;;0.52;100.00;95773.19;4994797;28;20069;-82
2021/01/23 07:47:58;;;;;;;10.05;5.70;;;;;;;0.47;100.00;95775.94;4979919;28;20091;-82
2021/01/23 07:50:36;;;;;;;14.30;7.05;;;;;;;0.44;100.00;95781.88;5013298;28;20569;-83
2021/01/23 07:53:20;;;;;;;9.30;5.75;;;;;;;0.47;100.00;95771.41;4986462;28;20046;-83
2021/01/23 07:55:51;;;;;;;8.23;4.70;;;;;;;0.48;100.00;95765.03;4985048;28;20049;-83
2021/01/23 07:58:23;;;;;;;9.73;5.30;;;;;;;0.40;100.00;95763.03;4964875;28;20042;-83
2021/01/23 08:00:51;;;;;;;13.15;5.70;;;;;;;0.46;100.00;95791.16;4967018;28;20046;-83
2021/01/23 08:03:18;;;;;;;8.23;4.95;;;;;;;0.65;100.00;95791.03;5011788;28;20066;-82
2021/01/23 08:05:57;;;;;;;7.95;5.05;;;;;;;0.53;100.00;95783.53;4979167;28;20461;-82
2021/01/23 08:08:37;;;;;;;8.00;4.45;;;;;;;0.44;100.00;95781.88;4986726;28;20160;-84
2021/01/23 08:11:07;;;;;;;8.45;4.63;;;;;;;0.52;100.00;95800.59;5023052;28;20109;-81
2021/01/23 08:13:35;;;;;;;8.10;5.00;;;;;;;0.54;100.00;95795.00;4985282;28;20141;-81
2021/01/23 08:16:14;;;;;;;9.27;5.38;;;;;;;0.50;100.00;95802.75;4980608;28;20049;-89
2021/01/23 08:19:06;;;;;;;7.63;4.30;;;;;;;0.52;100.00;95797.13;5058866;28;20099;-89
2021/01/23 08:21:32;;;;;;;8.15;4.60;;;;;;;0.44;100.00;95782.66;4956609;28;20459;-88
2021/01/23 08:24:03;;;;;;;7.97;4.50;;;;;;;0.49;100.00;95792.44;4958530;28;20073;-86
2021/01/23 08:26:37;;;;;;;5.70;3.78;;;;;;;0.54;100.00;95808.28;4959229;28;20077;-86
2021/01/23 08:29:18;;;;;;;6.80;3.92;;;;;;;0.50;100.00;95801.97;4977552;28;20047;-90
2021/01/23 08:32:00;;;;;;;5.30;3.42;;;;;;;0.53;100.00;95798.72;5045097;28;20054;-85
2021/01/23 08:34:26;;;;;;;4.80;2.90;;;;;;;0.54;100.00;95792.31;4961853;28;20054;-87
2021/01/23 08:37:04;;;;;;;5.68;3.35;;;;;;;0.62;100.00;95821.69;4977275;28;20531;-87
2021/01/23 08:39:48;;;;;;;5.45;3.40;;;;;;;0.54;100.00;95805.63;4978511;28;20166;-85
2021/01/23 08:42:15;;;;;;;4.68;3.30;;;;;;;0.56;100.00;95811.44;4977811;28;20489;-85
2021/01/23 08:44:42;;;;;;;6.43;3.90;;;;;;;0.53;100.00;95804.84;4985132;28;20062;-85
2021/01/23 08:47:08;;;;;;;6.65;4.28;;;;;;;0.55;100.00;95801.88;4987249;28;20048;-81
2021/01/23 08:49:38;;;;;;;7.15;4.43;;;;;;;0.47;100.00;95790.03;4982495;28;20046;-85
2021/01/23 08:52:04;;;;;;;8.02;5.28;;;;;;;0.59;100.00;95814.28;4960073;28;20064;-83
2021/01/23 08:54:31;;;;;;;10.13;6.60;;;;;;;0.58;100.00;95801.28;4991345;28;20160;-83
2021/01/23 08:56:57;;;;;;;8.93;5.97;;;;;;;0.57;100.00;95807.69;4969552;28;20030;-83
2021/01/23 08:59:23;;;;;;;12.55;6.70;;;;;;;0.65;100.00;95814.22;4971514;28;20107;-83
2021/01/23 09:01:50;;;;;;;14.43;8.13;;;;;;;0.54;100.00;95811.72;4985377;28;20030;-82
2021/01/23 09:04:16;;;;;;;13.07;7.05;;;;;;;0.61;100.00;95825.44;5019674;28;20041;-82
2021/01/23 09:06:44;;;;;;;10.63;6.70;;;;;;;0.66;100.00;95829.88;4999906;28;20452;-81
2021/01/23 09:09:11;;;;;;;10.07;6.45;;;;;;;0.66;100.00;95823.75;5046236;28;20093;-79
2021/01/23 09:11:38;;;;;;;9.65;6.25;;;;;;;0.57;100.00;95821.78;4976027;28;20363;-80
2021/01/23 09:14:05;;;;;;;10.15;6.82;;;;;;;0.56;100.00;95833.53;4974878;28;20050;-81
2021/01/23 09:16:32;;;;;;;12.38;7.20;;;;;;;0.61;100.00;95832.66;4990810;28;20425;-81
2021/01/23 09:19:01;;;;;;;11.45;6.95;;;;;;;0.59;100.00;95840.16;4976272;28;20068;-81
2021/01/23 09:21:36;;;;;;;13.73;7.30;;;;;;;0.62;100.00;95832.34;4973961;28;20141;-81
2021/01/23 09:24:03;;;;;;;11.07;7.50;;;;;;;0.68;100.00;95834.91;4959002;28;20088;-81
2021/01/23 09:26:29;;;;;;;11.07;7.32;;;;;;;0.69;100.00;95842.59;4975967;28;20043;-82
2021/01/23 09:28:55;;;;;;;12.30;7.15;;;;;;;0.73;100.00;95845.44;4976691;28;20462;-81
2021/01/23 09:31:22;;;;;;;13.40;8.02;;;;;;;0.70;100.00;95848.72;4981703;28;20073;-81
2021/01/23 09:33:50;;;;;;;13.43;7.80;;;;;;;0.73;100.00;95854.22;4983334;28;20050;-81
2021/01/23 09:36:17;;;;;;;12.52;7.97;;;;;;;0.65;100.00;95841.59;4993131;28;20046;-82
2021/01/23 09:38:46;;;;;;;12.88;8.32;;;;;;;0.61;100.00;95848.63;5006755;28;20034;-81
2021/01/23 09:41:13;;;;;;;14.23;8.98;;;;;;;0.70;100.00;95857.47;4982812;23;20078;-80
2021/01/23 09:43:39;;;;;;;11.82;8.10;;;;;;;0.72;100.00;95858.00;4993907;28;20054;-78
2021/01/23 09:46:12;;;;;;;13.65;7.97;;;;;;;0.78;100.00;95850.69;5012677;28;20134;-77
2021/01/23 09:48:39;;;;;;;13.15;7.70;;;;;;;0.66;100.00;95848.53;5078396;28;20053;-80
2021/01/23 09:51:06;;;;;;;12.80;7.55;;;;;;;0.66;100.00;95856.50;5012512;28;20046;-79
2021/01/23 09:53:32;;;;;;;12.88;7.82;;;;;;;0.73;100.00;95859.56;5078772;28;20048;-77
2021/01/23 09:55:58;;;;;;;13.32;7.05;;;;;;;0.61;100.00;95857.41;5010504;28;20054;-78
2021/01/23 09:58:24;;;;;;;10.13;6.47;;;;;;;0.79;100.00;95860.25;5010627;28;20042;-79
2021/01/23 10:00:51;;;;;;;8.95;5.88;;;;;;;0.69;100.00;95861.25;5077276;28;20488;-77
2021/01/23 10:03:17;;;;;;;10.65;6.40;;;;;;;0.81;100.00;95874.06;5077261;28;20046;-79
2021/01/23 10:05:44;;;;;;;9.98;6.65;;;;;;;0.77;100.00;95859.75;5009881;28;20107;-78
2021/01/23 10:08:11;;;;;;;12.45;6.50;;;;;;;0.76;100.00;95861.63;5011068;28;20053;-78
2021/01/23 10:10:37;;;;;;;12.95;6.60;;;;;;;0.73;100.00;95861.41;5010452;28;20046;-80
2021/01/23 10:13:03;;;;;;;14.68;7.22;;;;;;;0.72;100.00;95865.19;5010396;28;20404;-80
2021/01/23 10:15:32;;;;;;;10.38;5.82;;;;;;;0.72;100.00;95862.53;4993260;28;20531;-79
2021/01/23 10:18:00;;;;;;;12.20;6.70;;;;;;;0.59;100.00;95848.13;5011802;28;20353;-78
2021/01/23 10:20:27;;;;;;;10.73;5.38;;;;;;;0.70;100.00;95859.38;5011309;28;20496;-77
2021/01/23 10:22:54;;;;;;;13.35;6.20;;;;;;;0.77;100.00;95860.56;5013952;28;20081;-78
2021/01/23 10:25:21;;;;;;;8.95;5.50;;;;;;;0.70;100.00;95873.44;5007059;28;20064;-83
2021/01/23 10:27:50;;;;;;;9.55;5.93;;;;;;;0.71;100.00;95883.03;5019041;28;20051;-79
2021/01/23 10:30:17;;;;;;;7.97;5.43;;;;;;;0.69;100.00;95871.09;5016130;28;20144;-79
2021/01/23 10:32:43;;;;;;;9.45;5.93;;;;;;;0.84;100.00;95871.59;5025521;28;20045;-78
2021/01/23 10:35:10;;;;;;;9.02;5.43;;;;;;;0.96;100.00;95863.91;5014704;28;20082;-79
2021/01/23 10:37:37;;;;;;;8.85;5.68;;;;;;;0.92;100.00;95859.47;5042577;28;20034;-77
2021/01/23 10:40:05;;;;;;;9.50;5.70;;;;;;;1.07;100.00;95865.28;5017771;28;20064;-79
2021/01/23 10:42:32;;;;;;;9.38;6.05;;;;;;;1.03;100.00;95871.50;5021111;28;20042;-79
2021/01/23 10:44:59;;;;;;;9.82;6.07;;;;;;;1.16;100.00;95866.13;5010917;28;20058;-78
2021/01/23 10:47:25;;;;;;;12.07;7.75;;;;;;;1.17;100.00;95872.25;5030581;28;20044;-79
2021/01/23 10:49:53;;;;;;;9.80;6.93;;;;;;;1.17;100.00;95872.25;5030455;28;20033;-78
2021/01/23 10:52:19;;;;;;;10.15;6.90;;;;;;;1.19;100.00;95870.88;5013624;28;20458;-76
2021/01/23 10:54:45;;;;;;;13.52;8.18;;;;;;;1.22;100.00;95867.63;5014229;28;20045;-78
2021/01/23 10:57:12;;;;;;;11.35;7.82;;;;;;;1.27;100.00;95869.38;5014984;28;20048;-77
2021/01/23 10:59:38;;;;;;;15.35;7.63;;;;;;;1.14;100.00;95870.97;5031651;28;20045;-78
2021/01/23 11:02:05;;;;;;;10.35;7.28;;;;;;;1.26;100.00;95881.91;5031037;28;20048;-78
2021/01/23 11:04:32;;;;;;;9.80;6.45;;;;;;;1.20;100.00;95875.13;5033285;28;20149;-77
2021/01/23 11:06:58;;;;;;;11.40;7.43;;;;;;;1.26;100.00;95881.91;5015543;28;20385;-78
2021/01/23 11:09:24;;;;;;;14.73;8.07;;;;;;;1.25;100.00;95877.69;5032450;28;20411;-78
2021/01/23 11:11:50;;;;;;;13.45;7.97;;;;;;;1.18;100.00;95881.84;4996830;28;20055;-79
2021/01/23 11:14:17;;;;;;;14.38;8.35;;;;;;;1.25;100.00;95884.88;5015926;28;20583;-78
2021/01/23 11:16:43;;;;;;;13.63;8.38;;;;;;;1.30;100.00;95887.44;5033530;28;20042;-78
2021/01/23 11:19:10;;;;;;;12.50;7.35;;;;;;;1.17;100.00;95885.59;5039423;28;20045;-76
2021/01/23 11:21:37;;;;;;;10.68;6.78;;;;;;;1.08;100.00;95885.50;5040045;28;20051;-77
2021/01/23 11:24:03;;;;;;;12.98;8.05;;;;;;;1.18;100.00;95892.50;5018075;28;20119;-77
2021/01/23 11:26:32;;;;;;;12.70;7.78;;;;;;;1.30;100.00;95900.78;5031541;28;20049;-77
2021/01/23 11:28:59;;;;;;;17.73;9.13;;;;;;;1.30;100.00;95902.66;5013138;28;20053;-85
2021/01/23 11:31:25;;;;;;;15.02;8.63;;;;;;;1.30;100.00;95886.66;5030804;28;20049;-76
2021/01/23 11:33:52;;;;;;;14.48;7.90;;;;;;;1.25;100.00;95891.00;5033118;28;20046;-77
2021/01/23 11:36:19;;;;;;;15.38;8.25;;;;;;;1.34;100.00;95887.66;5030851;28;20053;-79
2021/01/23 11:38:45;;;;;;;15.15;7.35;;;;;;;1.49;100.00;95882.00;5011102;28;20050;-77
2021/01/23 11:41:11;;;;;;;11.95;6.32;;;;;;;1.51;100.00;95885.94;5030758;28;20606;-79
2021/01/23 11:43:37;;;;;;;11.18;5.80;;;;;;;1.53;100.00;95896.28;5033871;28;20046;-80